Terminal Aerodrome Forecast
Issued by NWS Wilmington, OH

Current Version | Previous Version | Text Only | Print | Product List | Glossary Off
Versions: 1 2 3 4 5 6 7 8 9 10 11 12 13 14 15 16 17 18 19 20 21 22 23 24 25 26 27 28 29

960
FTUS41 KILN 300405 AAA
TAFILN
TAF AMD
KILN 300405Z 3004/3024 00000KT 6SM -RA BR BKN015 BKN050 OVC080
     FM300600 08006KT 4SM -SHRA BR OVC004
     FM301400 15006KT P6SM -SHRA BKN015 OVC040
     FM301700 15006KT P6SM VCSH BKN035=

USA.gov is the U.S. government's official web portal to all federal, state and local government web resources and services.